Time;durP1;ratioP1;P1;durP2;ratioP2;P2;SDS_P1;SDS_P2;PMS_P1;PMS_P2;Temp;Humidity;BMP_temperature;BMP_pressure;BME280_temperature;BME280_humidity;BME280_pressure;Samples;Min_cycle;Max_cycle;Signal;HPM_P1;HPM_P2
2022/09/30 00:02:19;;;;;;;16.77;8.75;;;;;;;22.38;58.28;99472.66;20630176;28;21695;-74
2022/09/30 00:12:19;;;;;;;13.38;8.45;;;;;;;22.36;58.13;99474.63;20624218;28;20050;-74
2022/09/30 00:22:21;;;;;;;13.35;8.25;;;;;;;22.33;58.32;99390.50;20628897;28;20056;-74
2022/09/30 00:32:21;;;;;;;15.00;8.10;;;;;;;22.34;58.10;99404.53;20626335;28;20046;-74
2022/09/30 00:42:21;;;;;;;13.73;7.70;;;;;;;22.33;58.29;99393.13;20622441;28;20496;-75
2022/09/30 00:52:23;;;;;;;12.45;7.95;;;;;;;22.33;58.41;99401.06;20620614;28;20060;-74
2022/09/30 01:02:24;;;;;;;12.48;7.55;;;;;;;22.30;58.13;99385.53;20628881;28;20057;-73
2022/09/30 01:12:25;;;;;;;11.40;7.38;;;;;;;22.31;58.41;99395.09;20620668;28;22142;-74
2022/09/30 01:22:32;;;;;;;9.32;6.63;;;;;;;22.30;58.60;99411.91;20624331;28;21644;-74
2022/09/30 01:32:48;;;;;;;10.65;7.32;;;;;;;22.27;58.49;99406.94;20625501;28;20061;-74
2022/09/30 01:42:51;;;;;;;11.10;7.13;;;;;;;22.27;58.77;99414.84;20637281;28;20517;-74
2022/09/30 01:53:02;;;;;;;9.07;6.32;;;;;;;22.28;58.59;99420.97;20639248;28;20049;-74
2022/09/30 02:03:16;;;;;;;12.75;7.53;;;;;;;22.25;58.63;99387.78;20639912;28;20422;-74
2022/09/30 02:13:36;;;;;;;10.77;6.63;;;;;;;22.23;58.62;99381.84;20636580;28;20034;-74
2022/09/30 02:23:42;;;;;;;9.45;6.25;;;;;;;22.21;58.97;99363.50;20636436;28;20513;-75
2022/09/30 02:34:00;;;;;;;9.85;5.97;;;;;;;22.19;58.74;99391.03;20627168;28;20073;-75
2022/09/30 02:44:01;;;;;;;8.93;6.18;;;;;;;22.19;58.71;99373.41;20628389;28;20049;-74
2022/09/30 02:54:21;;;;;;;7.55;5.60;;;;;;;22.18;58.71;99373.53;20631214;28;20581;-75
2022/09/30 03:04:26;;;;;;;8.57;5.60;;;;;;;22.19;58.93;99360.22;20631473;28;20180;-74
2022/09/30 03:14:40;;;;;;;8.45;5.68;;;;;;;22.16;58.63;99343.88;20625103;28;20057;-75
2022/09/30 03:24:50;;;;;;;8.57;5.22;;;;;;;22.18;58.89;99352.44;20633930;28;20132;-74
2022/09/30 03:34:50;;;;;;;7.43;5.47;;;;;;;22.16;58.77;99364.97;20633269;28;20149;-74
2022/09/30 03:45:27;;;;;;;6.35;5.00;;;;;;;22.15;58.83;99374.66;20623324;28;20054;-74
2022/09/30 03:55:29;;;;;;;7.05;4.78;;;;;;;22.11;59.01;99372.50;20631036;28;20065;-74
2022/09/30 04:05:29;;;;;;;8.07;5.38;;;;;;;22.11;58.78;99381.22;20617240;28;20057;-74
2022/09/30 04:15:29;;;;;;;6.68;4.95;;;;;;;22.13;58.80;99375.81;20629978;28;20050;-73
2022/09/30 04:25:30;;;;;;;6.70;4.63;;;;;;;22.19;59.54;99367.28;20631961;28;20046;-73
2022/09/30 04:35:31;;;;;;;9.45;4.88;;;;;;;22.22;60.46;99381.00;20635450;28;20167;-76
2022/09/30 04:45:32;;;;;;;13.57;5.80;;;;;;;22.28;60.92;99389.31;20654006;28;20397;-74
2022/09/30 04:55:32;;;;;;;12.80;5.47;;;;;;;22.32;60.73;99406.47;20642912;28;20141;-74
2022/09/30 05:05:33;;;;;;;14.85;5.55;;;;;;;22.29;60.52;99415.53;20649847;28;20418;-77
2022/09/30 05:15:33;;;;;;;13.65;5.13;;;;;;;22.25;59.18;99423.88;20635838;28;20081;-76
2022/09/30 05:25:34;;;;;;;16.00;5.55;;;;;;;22.33;60.61;99426.59;20656713;28;20050;-77
2022/09/30 05:35:35;;;;;;;25.00;5.70;;;;;;;22.26;59.61;99422.91;20655416;28;20058;-76
2022/09/30 05:45:37;;;;;;;13.02;5.68;;;;;;;22.30;60.58;99430.38;20654589;28;20273;-77
2022/09/30 05:55:37;;;;;;;16.48;5.80;;;;;;;22.33;60.73;99432.69;20663291;28;20038;-76
2022/09/30 06:05:38;;;;;;;13.52;5.03;;;;;;;22.34;60.84;99444.09;20688032;28;20054;-73
2022/09/30 06:15:40;;;;;;;17.15;5.63;;;;;;;22.34;60.85;99439.63;20663845;28;20057;-73
2022/09/30 06:25:41;;;;;;;10.53;4.50;;;;;;;22.32;60.46;99446.84;20668083;28;20600;-73
2022/09/30 06:35:42;;;;;;;9.55;4.70;;;;;;;22.34;60.49;99452.81;20658019;28;20042;-73
2022/09/30 06:45:45;;;;;;;10.88;4.55;;;;;;;22.34;60.37;99455.47;20654824;28;20089;-73
2022/09/30 06:55:45;;;;;;;8.57;4.22;;;;;;;22.34;60.25;99470.47;20650689;28;20062;-76
2022/09/30 07:05:55;;;;;;;9.50;4.33;;;;;;;22.35;60.53;99474.75;20651579;28;20656;-76
2022/09/30 07:15:55;;;;;;;10.30;4.25;;;;;;;22.33;60.18;99489.91;20659483;28;20303;-76
2022/09/30 07:25:59;;;;;;;6.57;4.07;;;;;;;22.32;60.63;99501.44;20653828;28;20104;-76
2022/09/30 07:36:02;;;;;;;14.50;4.32;;;;;;;22.31;60.58;99510.31;20650290;28;20057;-76
2022/09/30 07:46:15;;;;;;;7.40;4.22;;;;;;;22.31;60.13;99532.22;20647782;28;20049;-76
2022/09/30 07:56:16;;;;;;;8.55;4.20;;;;;;;22.32;60.39;99540.97;20648652;28;20034;-76
2022/09/30 08:06:18;;;;;;;6.60;4.57;;;;;;;22.31;60.26;99545.41;20654146;28;20069;-75
2022/09/30 08:16:19;;;;;;;9.73;5.32;;;;;;;22.31;60.12;99553.31;20634501;28;20058;-76
2022/09/30 08:26:20;;;;;;;8.05;5.40;;;;;;;22.32;60.28;99568.19;20629186;28;20034;-76
2022/09/30 08:36:23;;;;;;;8.63;5.88;;;;;;;22.35;60.46;99588.16;20650753;28;20060;-76
2022/09/30 08:46:38;;;;;;;7.60;5.53;;;;;;;22.23;59.18;99598.09;20643294;28;20562;-76
2022/09/30 08:56:38;;;;;;;9.00;5.55;;;;;;;22.15;58.61;99619.06;20651162;28;20070;-76
2022/09/30 09:07:36;;;;;;;5.78;4.88;;;;;;;22.11;57.48;99615.88;20649978;28;20053;-76
2022/09/30 09:17:55;;;;;;;7.07;5.50;;;;;;;22.18;58.78;99619.59;20507196;28;20045;-76
2022/09/30 09:28:21;;;;;;;7.75;6.07;;;;;;;22.25;58.62;99632.22;20644675;28;20096;-76
2022/09/30 09:39:11;;;;;;;11.32;8.43;;;;;;;22.30;58.69;99651.91;20636222;28;20046;-76
2022/09/30 09:49:15;;;;;;;11.25;8.82;;;;;;;22.31;59.24;99653.53;20641261;28;20046;-76
2022/09/30 09:59:17;;;;;;;14.60;11.45;;;;;;;22.33;58.85;99663.97;20640711;28;20651;-76
2022/09/30 10:09:26;;;;;;;20.17;12.90;;;;;;;22.33;58.97;99677.16;20665741;28;20061;-76
2022/09/30 10:19:29;;;;;;;16.85;12.98;;;;;;;22.34;58.91;99679.66;20649898;28;20049;-76
2022/09/30 10:29:33;;;;;;;16.05;12.50;;;;;;;22.37;59.25;99681.16;20669368;28;20045;-76
2022/09/30 10:39:40;;;;;;;17.25;13.27;;;;;;;22.37;59.13;99711.03;20658575;28;20042;-76
2022/09/30 10:49:54;;;;;;;16.60;12.93;;;;;;;22.37;58.79;99729.50;20666995;28;20493;-76
2022/09/30 11:00:17;;;;;;;16.65;13.70;;;;;;;22.41;59.28;99730.06;20665607;28;20041;-75
2022/09/30 11:10:55;;;;;;;17.65;14.32;;;;;;;22.47;59.43;99758.50;20656235;28;20050;-75
2022/09/30 11:21:04;;;;;;;18.77;14.60;;;;;;;22.49;59.88;99790.03;20654257;28;20046;-76
2022/09/30 11:31:16;;;;;;;16.08;13.00;;;;;;;22.52;59.87;99801.13;20633259;28;20034;-75
2022/09/30 11:41:28;;;;;;;;;;;;;;;22.55;59.83;99805.28;20643756;28;20061;-74
2022/09/30 11:51:51;;;;;;;15.00;12.25;;;;;;;22.55;59.70;99823.75;20653295;28;19917;-75
2022/09/30 12:01:53;;;;;;;;;;;;;;;22.58;59.77;99854.31;20650136;28;20037;-76
2022/09/30 12:12:08;;;;;;;13.37;11.37;;;;;;;22.62;59.43;99858.31;20642671;28;19925;-76
2022/09/30 12:22:15;;;;;;;7.13;6.40;;;;;;;22.58;56.64;99873.59;20652918;28;20505;-76
2022/09/30 12:32:34;;;;;;;14.75;7.72;;;;;;;22.75;58.35;99879.97;20643034;28;20042;-75
2022/09/30 12:42:51;;;;;;;2.45;1.90;;;;;;;22.82;52.08;99888.97;20632129;28;20042;-81
2022/09/30 12:52:52;;;;;;;9.60;4.90;;;;;;;23.02;56.69;99889.78;20622233;28;20152;-76
2022/09/30 13:02:56;;;;;;;7.50;5.40;;;;;;;23.19;57.52;99908.50;20643442;28;20532;-76
2022/09/30 13:13:09;;;;;;;7.88;5.50;;;;;;;23.33;57.70;99920.44;20640519;28;20305;-76
2022/09/30 13:23:44;;;;;;;12.32;5.22;;;;;;;23.46;57.76;99915.66;20642380;28;20103;-76
2022/09/30 13:33:55;;;;;;;6.43;5.05;;;;;;;23.54;57.66;99944.00;20659545;28;20042;-75
2022/09/30 13:44:06;;;;;;;5.75;5.15;;;;;;;23.56;57.54;99968.47;20657970;28;20137;-75
2022/09/30 13:54:25;;;;;;;13.27;5.23;;;;;;;23.68;57.71;99969.13;20640107;28;20069;-75
2022/09/30 14:04:55;;;;;;;9.18;4.97;;;;;;;23.73;57.46;99966.88;20634829;28;20046;-76
2022/09/30 14:15:07;;;;;;;5.65;4.68;;;;;;;23.80;57.26;99956.53;20659002;28;20042;-78
2022/09/30 14:25:20;;;;;;;7.05;4.88;;;;;;;23.91;57.31;99969.59;20670961;28;20054;-78
2022/09/30 14:35:28;;;;;;;6.35;4.60;;;;;;;24.02;56.94;99973.84;20670599;28;20038;-77
2022/09/30 14:45:31;;;;;;;6.57;5.28;;;;;;;24.02;56.45;99981.78;20664120;28;20052;-77
2022/09/30 14:55:34;;;;;;;7.82;5.05;;;;;;;24.06;56.72;99975.25;20651402;28;20088;-75
2022/09/30 15:05:35;;;;;;;7.22;5.50;;;;;;;24.02;56.53;99988.91;20634784;28;20045;-77
2022/09/30 15:15:36;;;;;;;17.10;5.40;;;;;;;24.02;56.61;99999.47;20650439;28;20525;-77
2022/09/30 15:25:38;;;;;;;7.30;5.73;;;;;;;23.92;56.64;100002.13;20659029;28;20548;-77
2022/09/30 15:35:39;;;;;;;7.90;5.57;;;;;;;23.83;56.77;100014.44;20646689;28;20101;-76
2022/09/30 15:45:42;;;;;;;7.63;5.10;;;;;;;23.78;56.85;100036.00;20636268;28;20065;-76
2022/09/30 15:55:45;;;;;;;10.20;5.40;;;;;;;23.68;57.68;100043.16;20644346;28;20727;-75
2022/09/30 16:05:45;;;;;;;8.45;5.25;;;;;;;23.62;57.99;100047.19;20635193;28;20050;-76
2022/09/30 16:15:47;;;;;;;12.63;5.25;;;;;;;23.53;58.01;100065.72;20634632;28;20143;-78
2022/09/30 16:25:48;;;;;;;11.17;4.63;;;;;;;23.50;58.29;100083.50;20610189;28;20054;-74
2022/09/30 16:35:48;;;;;;;6.97;3.72;;;;;;;23.31;56.56;100087.03;20632691;28;20048;-75
2022/09/30 16:45:49;;;;;;;7.00;3.55;;;;;;;23.28;57.35;100107.59;20641266;28;20050;-74
2022/09/30 16:55:51;;;;;;;5.75;3.83;;;;;;;23.32;58.36;100099.25;20624797;28;20072;-74
2022/09/30 17:05:54;;;;;;;7.10;3.80;;;;;;;23.33;58.53;100102.72;20661960;28;20054;-76
2022/09/30 17:15:55;;;;;;;7.20;4.85;;;;;;;23.42;58.57;100122.19;20661671;28;20062;-76
2022/09/30 17:25:56;;;;;;;13.52;6.30;;;;;;;23.52;58.88;100122.19;20651832;28;20398;-76
2022/09/30 17:35:59;;;;;;;32.35;24.60;;;;;;;23.61;59.65;100116.06;20664481;28;20061;-77
2022/09/30 17:45:59;;;;;;;;;;;;;;;23.66;59.06;100134.97;20651834;28;20049;-75
2022/09/30 17:56:02;;;;;;;38.85;31.42;;;;;;;23.71;59.73;100131.91;20651793;28;20119;-75
2022/09/30 18:06:03;;;;;;;39.47;29.02;;;;;;;23.71;59.20;100153.06;20657746;28;20038;-75
2022/09/30 18:16:06;;;;;;;32.55;26.45;;;;;;;23.73;59.03;100159.88;20674137;28;20058;-75
2022/09/30 18:26:07;;;;;;;30.10;24.52;;;;;;;23.76;58.89;100161.38;20660559;28;20064;-75
2022/09/30 18:36:07;;;;;;;28.48;23.52;;;;;;;23.75;58.56;100157.06;20672404;28;20042;-75
2022/09/30 18:46:08;;;;;;;26.00;20.67;;;;;;;23.74;58.61;100173.91;20658334;28;20050;-75
2022/09/30 18:56:08;;;;;;;23.20;19.75;;;;;;;23.78;58.55;100201.75;20661977;28;20045;-76
2022/09/30 19:06:09;;;;;;;30.40;19.92;;;;;;;23.74;58.38;100198.56;20631070;28;20042;-75
2022/09/30 19:16:10;;;;;;;21.02;17.65;;;;;;;23.73;58.41;100206.59;20667566;28;20463;-74
2022/09/30 19:26:11;;;;;;;21.45;17.83;;;;;;;23.70;58.42;100202.44;20653750;28;20049;-75
2022/09/30 19:36:15;;;;;;;24.90;17.73;;;;;;;23.70;58.35;100218.28;20632610;28;20575;-76
2022/09/30 19:46:16;;;;;;;20.13;16.02;;;;;;;23.70;58.53;100251.84;20634895;28;20120;-75
2022/09/30 19:56:22;;;;;;;19.90;14.95;;;;;;;23.67;58.45;100223.88;20621359;28;20050;-75
2022/09/30 20:06:23;;;;;;;19.77;14.02;;;;;;;23.57;58.57;100258.22;20662811;28;20049;-77
2022/09/30 20:16:24;;;;;;;16.00;13.07;;;;;;;23.48;58.77;100236.06;20635329;28;20054;-77
2022/09/30 20:26:25;;;;;;;17.17;12.63;;;;;;;23.45;58.80;100235.56;20659619;28;20042;-78
2022/09/30 20:36:26;;;;;;;15.48;11.90;;;;;;;23.42;58.95;100228.72;20672385;28;20049;-78
2022/09/30 20:46:30;;;;;;;20.53;11.93;;;;;;;23.38;59.17;100215.94;20679204;28;20050;-78
2022/09/30 20:56:31;;;;;;;14.77;11.75;;;;;;;23.32;59.01;100193.53;20676648;28;20043;-77
2022/09/30 21:06:32;;;;;;;17.05;11.00;;;;;;;23.24;59.45;100209.22;20682507;28;20046;-78
2022/09/30 21:16:32;;;;;;;12.63;10.38;;;;;;;23.21;59.31;100212.97;20658085;28;20124;-78
2022/09/30 21:26:34;;;;;;;12.82;9.82;;;;;;;23.16;59.18;100215.16;20645555;28;20042;-78
2022/09/30 21:36:34;;;;;;;11.97;9.77;;;;;;;23.13;59.44;100205.72;20631393;28;20042;-78
2022/09/30 21:46:35;;;;;;;11.68;9.65;;;;;;;23.04;59.54;100222.34;20638623;28;20049;-77
2022/09/30 21:56:35;;;;;;;10.52;8.95;;;;;;;22.99;59.49;100225.41;20637634;28;20038;-78
2022/09/30 22:06:36;;;;;;;9.65;8.52;;;;;;;22.96;59.47;100209.84;20655004;28;20045;-79
2022/09/30 22:16:36;;;;;;;10.35;8.40;;;;;;;23.01;59.33;100230.56;20633328;28;20050;-79
2022/09/30 22:26:37;;;;;;;9.65;8.43;;;;;;;23.01;59.40;100218.19;20633425;28;20041;-78
2022/09/30 22:46:58;;;;;;;9.88;7.90;;;;;;;22.97;59.43;100206.22;20625386;28;20054;-78
2022/09/30 22:56:58;;;;;;;9.40;7.60;;;;;;;22.92;59.43;100197.03;20625183;28;20042;-77
2022/09/30 23:06:59;;;;;;;12.32;7.90;;;;;;;22.90;59.39;100188.41;20627698;28;20534;-77
2022/09/30 23:16:59;;;;;;;9.23;7.32;;;;;;;22.88;59.46;100206.22;20628083;28;20053;-77
2022/09/30 23:27:00;;;;;;;10.98;7.72;;;;;;;22.89;59.51;100208.69;20623963;28;20079;-78
2022/09/30 23:37:00;;;;;;;10.63;7.00;;;;;;;22.84;59.54;100190.63;20622702;28;20068;-77
2022/09/30 23:47:20;;;;;;;8.73;6.72;;;;;;;22.81;59.51;100187.41;20634279;28;20084;-78
2022/09/30 23:57:21;;;;;;;7.85;6.57;;;;;;;22.78;59.76;100166.59;20626748;28;20532;-78
